»·PEaware :: SKW486 KSFO-KSNA

SKW486 :: KSFO-KSNA

FLIGHT INFORMATION

Flight Status: Arrived
Operator:
SkyWest Airlines
More flights by this operator :: More flights under this callsign
Pilot: Matthew W. (35059)
Aircraft: CANADAIR CL-600 CRJ-700
(CRJ7)
More flights by this aircraft type
Origin: KSFO San Francisco Intl
United States
Destination: KSNA John Wayne-Orange Co
United States
More flights between these airports :: More routes between these airports
Route: OFFSH2 MCKEY TILLT TILLT2
File this flight plan on PilotEdge
Remarks:
Altitude:
(Current/Filed)
33,000ft
Speed:
(Current/Filed)
300kts
Departed: 24-Aug-21 07:54 PM
Arrived: 24-Aug-21 09:05 PM
Distance/Time
Traveled:
323nm/1:11
Distance/Time
To Go:
Arrived

Flight Plot

Page will automatically refresh every two minutes.

Flight plan parsing failed; only flown route is shown


Map Options




Map Legend


Flown Route
Filed Route
Departure Airport
Arrival Airport
Navaid (VOR, NDB)
Fix

Horizontal Profiles

Position Reports

Time Latitude Longitude Heading Altitude Ground
Speed
24-Aug-21 19:32 37.617989 -122.388497 139 12ft 0kts
24-Aug-21 19:33 37.617989 -122.388497 139 12ft 0kts
24-Aug-21 19:34 37.617989 -122.388497 139 12ft 0kts
24-Aug-21 19:35 37.617989 -122.388497 139 12ft 0kts
24-Aug-21 19:36 37.617989 -122.388497 139 12ft 0kts
24-Aug-21 19:37 37.617989 -122.388497 139 12ft 0kts
24-Aug-21 19:38 37.617989 -122.388497 139 12ft 0kts
24-Aug-21 19:39 37.617989 -122.388497 139 12ft 0kts
24-Aug-21 19:40 37.617989 -122.388497 139 12ft 0kts
24-Aug-21 19:41 37.617989 -122.388497 139 12ft 0kts
24-Aug-21 19:42 37.617989 -122.388497 139 12ft 0kts
24-Aug-21 19:43 37.617989 -122.388497 139 12ft 0kts
24-Aug-21 19:44 37.617989 -122.388497 139 12ft 0kts
24-Aug-21 19:45 37.618353 -122.389036 117 12ft 2kts
24-Aug-21 19:46 37.618442 -122.389254 117 12ft 0kts
24-Aug-21 19:47 37.619838 -122.390823 297 11ft 14kts
24-Aug-21 19:48 37.622544 -122.389869 72 11ft 18kts
24-Aug-21 19:49 37.620122 -122.383137 118 19ft 24kts
24-Aug-21 19:50 37.613982 -122.381421 207 12ft 30kts
24-Aug-21 19:51 37.609390 -122.384663 208 17ft 10kts
24-Aug-21 19:52 37.608520 -122.383964 116 19ft 0kts
24-Aug-21 19:53 37.610047 -122.381515 28 18ft 47kts
24-Aug-21 19:54 37.650253 -122.366660 344 1367ft 197kts
24-Aug-21 19:55 37.682553 -122.411896 233 4070ft 220kts
24-Aug-21 19:56 37.633204 -122.467669 217 6793ft 262kts
24-Aug-21 19:57 37.573858 -122.527451 217 9319ft 262kts
24-Aug-21 19:58 37.518304 -122.583224 217 11739ft 251kts
24-Aug-21 19:59 37.463905 -122.637561 217 14208ft 256kts
24-Aug-21 20:00 37.397375 -122.681362 177 16814ft 290kts
24-Aug-21 20:02 37.317056 -122.656248 169 18992ft 308kts
24-Aug-21 20:03 37.224828 -122.633620 172 21038ft 374kts
24-Aug-21 20:04 37.113024 -122.607563 172 23134ft 441kts
24-Aug-21 20:05 36.986491 -122.577241 172 25594ft 472kts
24-Aug-21 20:06 36.857570 -122.545590 172 27911ft 472kts
24-Aug-21 20:07 36.729814 -122.510807 173 29654ft 466kts
24-Aug-21 20:08 36.603468 -122.479558 173 31125ft 459kts
24-Aug-21 20:09 36.477926 -122.445681 173 32085ft 458kts
24-Aug-21 20:10 36.373517 -122.347849 140 33323ft 488kts
24-Aug-21 20:11 36.281633 -122.223265 141 34093ft 492kts
24-Aug-21 20:12 36.189806 -122.094894 137 34225ft 501kts
24-Aug-21 20:13 36.100231 -121.962996 138 34254ft 500kts
24-Aug-21 20:14 36.008962 -121.832987 137 34276ft 502kts
24-Aug-21 20:15 35.918710 -121.702077 138 34293ft 500kts
24-Aug-21 20:16 35.827489 -121.572359 137 34310ft 502kts
24-Aug-21 20:17 35.736537 -121.442377 138 34327ft 500kts
24-Aug-21 20:18 35.645574 -121.313048 136 34344ft 502kts
24-Aug-21 20:19 35.553823 -121.183920 138 34360ft 500kts
24-Aug-21 20:20 35.468873 -121.047370 132 34373ft 505kts
24-Aug-21 20:21 35.377203 -120.919272 139 34392ft 498kts
24-Aug-21 20:22 35.276382 -120.809708 146 34411ft 493kts
24-Aug-21 20:23 35.173215 -120.698939 144 34416ft 494kts
24-Aug-21 20:24 35.070017 -120.587851 146 34437ft 492kts
24-Aug-21 20:25 34.959932 -120.491111 153 34449ft 486kts
24-Aug-21 20:26 34.845965 -120.401457 152 34141ft 494kts
24-Aug-21 20:26 34.750516 -120.322687 151 33321ft 498kts
24-Aug-21 20:28 34.614783 -120.215230 151 32207ft 501kts
24-Aug-21 20:29 34.498702 -120.120929 152 31218ft 503kts
24-Aug-21 20:30 34.382148 -120.029204 152 30240ft 482kts
24-Aug-21 20:31 34.272249 -119.942150 152 29208ft 466kts
24-Aug-21 20:31 34.182437 -119.871049 152 28368ft 462kts
24-Aug-21 20:32 34.076703 -119.782660 138 27350ft 470kts
24-Aug-21 20:34 33.994766 -119.625349 124 26108ft 479kts
24-Aug-21 20:35 33.928080 -119.492808 126 24616ft 451kts
24-Aug-21 20:36 33.864358 -119.365300 124 23094ft 442kts
24-Aug-21 20:36 33.812475 -119.258655 124 21438ft 443kts
24-Aug-21 20:37 33.748572 -119.132081 125 19458ft 443kts
24-Aug-21 20:38 33.687776 -119.005528 132 15779ft 413kts
24-Aug-21 20:40 33.623881 -118.876876 121 12584ft 359kts
24-Aug-21 20:40 33.583112 -118.798182 119 11340ft 307kts
24-Aug-21 20:41 33.556704 -118.701674 95 10211ft 313kts
24-Aug-21 20:42 33.542679 -118.598523 100 9442ft 310kts
24-Aug-21 20:43 33.526389 -118.498564 103 9407ft 303kts
24-Aug-21 20:44 33.518725 -118.396049 95 8896ft 315kts
24-Aug-21 20:45 33.529714 -118.291968 71 8229ft 323kts
24-Aug-21 20:46 33.560487 -118.200254 69 7597ft 267kts
24-Aug-21 20:47 33.595765 -118.124255 54 6569ft 258kts
24-Aug-21 20:48 33.636332 -118.055120 56 5565ft 248kts
24-Aug-21 20:49 33.672335 -117.990291 57 5190ft 217kts
24-Aug-21 20:50 33.707089 -117.937114 26 5143ft 196kts
24-Aug-21 20:51 33.759115 -117.905506 27 4925ft 222kts
24-Aug-21 20:52 33.816276 -117.869966 32 3774ft 238kts
24-Aug-21 20:53 33.867447 -117.824930 44 3037ft 207kts
24-Aug-21 20:54 33.911236 -117.788717 38 3024ft 192kts
24-Aug-21 20:55 33.953595 -117.751469 55 2940ft 190kts
24-Aug-21 20:56 33.925182 -117.710386 173 3048ft 210kts
24-Aug-21 20:57 33.874567 -117.741600 214 2965ft 185kts
24-Aug-21 20:58 33.834767 -117.768358 207 2961ft 164kts
24-Aug-21 20:59 33.793620 -117.793708 207 2753ft 154kts
24-Aug-21 21:00 33.761351 -117.814487 207 1984ft 111kts
24-Aug-21 21:01 33.735611 -117.830855 207 1194ft 105kts
24-Aug-21 21:02 33.708614 -117.847891 208 639ft 104kts
24-Aug-21 21:03 33.683029 -117.864230 210 101ft 99kts
24-Aug-21 21:04 33.674451 -117.868526 151 60ft 0kts
24-Aug-21 21:05 33.674850 -117.866026 29 58ft 14kts

Navigation Log

Ident Type
Flight plan parsing failed, navigation log unavailable